VIP Ground Handling & Aviation Services

 

 
Airport

KAVALA (KVA)

Ground Handling Services – KVA/LGKV

VIP Ground Handling

State Ground Handling

Military Ground Handling

Slot & PPR Coordination

Fuel Arrangements

Crew Accommodation Arrangements

Crew Transportation

Customs & Immigration Assistance

Executive Terminal Services

Crew Lounge

Flight Planning, Weather Briefing and NOTAMs

Catering Arrangements

Security Services

Aircraft Maintenance

Airport Customs & Immigration

Concierge Services

VIP Meet & Greet

Helicopter Transfers

Chauffeur Services

Aircraft Charter

Yacht Charter

Hire & Rental

Entertainment & Hospitality

Health & Beauty

Delivery Services

Conference & Meeting rooms

Kavala International Airport ``Alexander the Great``, Kavala 642 00

+30 210 35 33 331 (24/7)

+30 694 6200 300 (24/7)

greece@alphajetservices.com

Kavala Airport
Airport Type
•Civil
Operating Hours
•Check NOTAMS / Contact Us
Fuel Available
•JET A1
Fire Category
•7
Approaches
•VOR / DME NDB
Available data for LGKV from the past 2 hours
KAVALA/CHRISOUPO
Metar
LGKV 260950Z 07018KT CAVOK 34/14 Q1015

09:50 UTC

Wind: 70° 18kt

Visibility:

Sky:

Temp: 34 deg C / 93.2 deg F

Dewpoint: 14 deg C / 57.2 deg F

Pressure: 1015 hPa

TAF
TAF LGKV 260500Z 2606/2706 06010KT 9999 FEW025 BECMG 2610/2612 FEW020 SCT080 BECMG 2620/2622 FEW020